Time;durP1;ratioP1;P1;durP2;ratioP2;P2;SDS_P1;SDS_P2;PMS_P1;PMS_P2;Temp;Humidity;BMP_temperature;BMP_pressure;BME280_temperature;BME280_humidity;BME280_pressure;Samples;Min_cycle;Max_cycle;Signal;HPM_P1;HPM_P2
2022/09/23 05:24:36;;;;;;;;;32.25;26.75;;;;;9.68;84.77;101438.53;5063796;28;49913;-81
2022/09/23 05:27:02;;;;;;;;;29.50;26.00;;;;;9.61;83.79;101372.72;5069273;28;49618;-86
2022/09/23 05:29:27;;;;;;;;;23.25;22.00;;;;;10.35;84.05;101466.22;5072402;28;49873;-78
2022/09/23 05:31:53;;;;;;;;;29.25;27.25;;;;;10.67;83.35;101506.63;5068337;28;50546;-82
2022/09/23 05:35:07;;;;;;;;;26.50;26.00;;;;;9.70;82.61;101310.13;5055201;28;49803;-91
2022/09/23 05:37:32;;;;;;;;;24.75;21.75;;;;;10.12;81.63;101360.44;5014122;28;49870;-83
2022/09/23 05:40:01;;;;;;;;;28.75;24.50;;;;;11.13;81.11;101521.22;5068016;28;49738;-90
2022/09/23 05:42:27;;;;;;;;;30.25;26.25;;;;;10.38;80.71;101376.19;5072910;28;50482;-82
2022/09/23 05:44:53;;;;;;;;;32.00;27.50;;;;;10.76;80.36;101407.13;5049116;28;49738;-83
2022/09/23 05:47:18;;;;;;;;;36.50;33.00;;;;;11.46;79.68;101503.78;5330013;22;49650;-79
2022/09/23 05:49:43;;;;;;;;;26.00;22.25;;;;;11.37;79.58;101460.56;5002622;28;49895;-87
2022/09/23 05:52:09;;;;;;;;;31.00;25.25;;;;;11.18;79.49;101451.25;5002993;28;49643;-78
2022/09/23 05:54:35;;;;;;;;;29.75;25.50;;;;;10.48;78.67;101296.88;5006416;28;49614;-80
2022/09/23 05:57:00;;;;;;;;;25.50;24.25;;;;;11.80;77.83;101506.53;5006631;28;49785;-75
2022/09/23 05:59:25;;;;;;;;;31.50;22.75;;;;;11.88;76.15;101500.66;5006858;28;49589;-76
2022/09/23 06:01:55;;;;;;;;;31.50;26.50;;;;;11.96;76.09;101511.34;5006455;28;49726;-81
2022/09/23 06:04:20;;;;;;;;;30.25;26.50;;;;;12.04;75.43;101500.19;5009614;28;49788;-79
2022/09/23 06:06:46;;;;;;;;;26.25;22.50;;;;;11.86;75.10;101483.00;5000365;28;49800;-76
2022/09/23 06:09:13;;;;;;;;;23.50;20.25;;;;;11.47;74.55;101384.63;4993458;28;50125;-77
2022/09/23 06:11:40;;;;;;;;;18.00;16.00;;;;;11.27;73.57;101319.22;4987933;28;49945;-81
2022/09/23 06:14:05;;;;;;;;;24.25;23.25;;;;;12.33;73.57;101487.78;5006273;28;49825;-78
2022/09/23 06:16:33;;;;;;;;;19.50;14.25;;;;;11.85;71.92;101387.41;5004718;28;49609;-75
2022/09/23 06:19:04;;;;;;;;;20.00;19.75;;;;;11.83;71.54;101365.44;5005524;28;49932;-79
2022/09/23 06:21:30;;;;;;;;;22.75;20.75;;;;;11.55;70.84;101318.22;5006203;28;49784;-88
2022/09/23 06:23:59;;;;;;;;;23.75;22.25;;;;;11.98;70.09;101391.25;5006226;28;49702;-81
2022/09/23 06:26:25;;;;;;;;;22.75;19.75;;;;;12.49;69.78;101464.47;5004680;28;49771;-82
2022/09/23 06:28:50;;;;;;;;;21.25;18.75;;;;;12.81;70.53;101494.19;5006393;28;49836;-82
2022/09/23 06:31:16;;;;;;;;;22.75;19.75;;;;;11.73;70.10;101327.47;5005446;28;50633;-80
2022/09/23 06:33:43;;;;;;;;;19.00;18.00;;;;;12.72;69.61;101478.16;5003781;28;49817;-82
2022/09/23 06:36:10;;;;;;;;;21.50;18.75;;;;;12.35;68.70;101389.50;4985641;28;49692;-81
2022/09/23 06:38:40;;;;;;;;;25.75;25.00;;;;;13.10;68.66;101505.41;4992947;28;49908;-82
2022/09/23 06:41:05;;;;;;;;;20.00;20.00;;;;;12.06;68.52;101338.78;4992506;28;50781;-82
2022/09/23 06:43:31;;;;;;;;;24.25;22.25;;;;;12.51;68.07;101402.19;4992484;28;50028;-82
2022/09/23 06:46:01;;;;;;;;;23.00;20.25;;;;;12.53;67.34;101396.09;4992615;28;50195;-82
2022/09/23 06:48:27;;;;;;;;;28.00;21.00;;;;;13.15;67.13;101488.84;4992311;28;49772;-82
2022/09/23 06:50:53;;;;;;;;;23.25;21.25;;;;;12.47;66.92;101340.66;4992171;28;50734;-82
2022/09/23 06:53:22;;;;;;;;;21.00;21.00;;;;;12.83;66.71;101389.72;4992670;28;49826;-82
2022/09/23 06:55:56;;;;;;;;;28.25;28.25;;;;;12.77;66.18;101398.38;4992627;28;49805;-83
2022/09/23 06:58:21;;;;;;;;;26.25;25.25;;;;;13.60;67.18;101508.25;4992699;28;49761;-82
2022/09/23 07:00:46;;;;;;;;;22.00;19.25;;;;;13.07;66.83;101418.34;4992012;28;53184;-82
2022/09/23 07:03:12;;;;;;;;;17.00;13.25;;;;;13.05;66.99;101384.06;4992269;28;49984;-80
2022/09/23 07:05:37;;;;;;;;;19.75;18.50;;;;;12.75;66.71;101338.63;4991793;28;49921;-81
2022/09/23 07:08:08;;;;;;;;;24.50;22.50;;;;;13.82;66.83;101520.16;4992628;28;49654;-81
2022/09/23 07:10:34;;;;;;;;;24.25;23.50;;;;;13.88;66.83;101499.13;4987378;28;51552;-82
2022/09/23 07:13:05;;;;;;;;;29.00;26.75;;;;;12.58;65.98;101251.34;4991383;28;49824;-81
2022/09/23 07:15:32;;;;;;;;;25.75;25.25;;;;;13.36;65.30;101408.44;4992411;28;49600;-84
2022/09/23 07:17:57;;;;;;;;;32.00;30.00;;;;;13.69;65.25;101426.63;4992129;28;49843;-85
2022/09/23 07:20:22;;;;;;;;;39.75;29.25;;;;;14.26;65.19;101484.88;4991885;28;50318;-85
2022/09/23 07:22:51;;;;;;;;;32.00;25.25;;;;;14.15;64.71;101470.59;4991672;28;49763;-83
2022/09/23 07:25:18;;;;;;;;;39.00;31.00;;;;;14.54;64.83;101496.81;4992041;28;49989;-84
2022/09/23 07:27:46;;;;;;;;;49.00;34.00;;;;;13.64;63.32;101339.50;4992570;28;49904;-82
2022/09/23 07:30:12;;;;;;;;;39.25;30.75;;;;;14.04;62.92;101396.50;4991977;28;50859;-84
2022/09/23 07:32:37;;;;;;;;;34.00;28.00;;;;;14.77;62.82;101512.19;4992026;28;49961;-84
2022/09/23 07:35:02;;;;;;;;;30.00;29.00;;;;;13.99;62.44;101342.75;4992586;28;49827;-85
2022/09/23 07:37:28;;;;;;;;;32.75;31.50;;;;;14.94;62.29;101488.63;4992257;28;49886;-85
2022/09/23 07:39:54;;;;;;;;;32.25;26.75;;;;;14.54;61.87;101412.28;4991140;28;53553;-83
2022/09/23 07:42:20;;;;;;;;;31.75;25.25;;;;;13.95;63.12;101289.88;4990416;28;49982;-85
2022/09/23 07:44:46;;;;;;;;;35.00;32.75;;;;;15.21;62.03;101504.88;4991932;28;50008;-86
2022/09/23 07:47:12;;;;;;;;;29.25;26.25;;;;;14.79;62.32;101429.38;4991616;28;50223;-87
2022/09/23 07:49:38;;;;;;;;;35.25;27.00;;;;;15.40;61.70;101506.91;4992592;28;49970;-87
2022/09/23 07:52:04;;;;;;;;;42.75;32.75;;;;;14.44;61.11;101338.13;4991669;28;49757;-88
2022/09/23 07:54:29;;;;;;;;;31.50;27.25;;;;;14.86;60.08;101386.31;4988898;28;50027;-86
2022/09/23 07:56:55;;;;;;;;;31.25;26.50;;;;;15.00;60.12;101393.53;4992302;28;49852;-84
2022/09/23 07:59:21;;;;;;;;;24.75;23.00;;;;;15.13;59.35;101427.19;4973895;28;50396;-86
2022/09/23 08:01:49;;;;;;;;;28.50;26.25;;;;;15.31;58.76;101416.84;4991852;28;49649;-85
2022/09/23 08:04:16;;;;;;;;;33.50;28.25;;;;;15.18;58.78;101369.97;4991281;28;50768;-86
2022/09/23 08:06:48;;;;;;;;;27.75;24.50;;;;;15.02;59.24;101325.69;4992013;28;50056;-88
2022/09/23 08:09:15;;;;;;;;;34.50;27.50;;;;;16.28;59.01;101516.72;4991590;28;49809;-88
2022/09/23 08:11:41;;;;;;;;;34.00;31.75;;;;;15.90;58.43;101458.09;4991741;28;49899;-85
2022/09/23 08:14:12;;;;;;;;;37.25;26.25;;;;;16.53;58.08;101544.34;4991875;28;49778;-84
2022/09/23 08:16:38;;;;;;;;;34.25;31.00;;;;;16.62;58.06;101522.34;4991566;28;49872;-84
2022/09/23 08:19:04;;;;;;;;;28.75;24.00;;;;;16.65;57.38;101525.00;4992456;28;50169;-89
2022/09/23 08:21:30;;;;;;;;;33.75;28.00;;;;;16.73;57.42;101534.84;4993362;28;49961;-84
2022/09/23 08:23:55;;;;;;;;;37.00;32.75;;;;;16.12;57.31;101391.22;4993108;28;49749;-89
2022/09/23 08:26:21;;;;;;;;;35.50;28.00;;;;;16.47;56.62;101462.13;4992638;28;50179;-88
2022/09/23 08:28:46;;;;;;;;;35.50;26.75;;;;;15.95;56.73;101354.00;4969826;28;54131;-87
2022/09/23 08:31:13;;;;;;;;;34.75;30.25;;;;;16.67;56.77;101451.69;4991561;28;49638;-88
2022/09/23 08:33:39;;;;;;;;;34.50;25.75;;;;;17.16;56.42;101521.84;4991650;28;49548;-87
2022/09/23 08:36:05;;;;;;;;;34.25;27.75;;;;;17.09;56.30;101520.97;4993235;28;50453;-89
2022/09/23 08:38:31;;;;;;;;;31.00;28.25;;;;;16.13;55.52;101324.13;4992289;28;50935;-87
2022/09/23 08:41:36;;;;;;;;;34.25;28.00;;;;;17.51;55.45;101524.72;4991396;28;50098;-87
2022/09/23 08:44:07;;;;;;;;;31.25;27.25;;;;;17.64;55.26;101526.53;4973157;28;49780;-89
2022/09/23 08:46:42;;;;;;;;;31.00;27.50;;;;;16.47;54.55;101319.03;4991360;28;49866;-86
2022/09/23 08:49:13;;;;;;;;;31.50;26.25;;;;;17.82;53.79;101522.19;4991117;28;50693;-88
2022/09/23 08:51:50;;;;;;;;;29.75;27.50;;;;;17.78;53.46;101499.19;4990855;28;49735;-88
2022/09/23 08:54:17;;;;;;;;;29.00;28.50;;;;;17.12;52.66;101395.41;4974689;28;49773;-87
2022/09/23 08:56:47;;;;;;;;;36.25;31.00;;;;;17.81;52.38;101499.19;4992235;28;49833;-89
2022/09/23 08:59:22;;;;;;;;;30.50;28.50;;;;;18.12;52.04;101524.03;4991122;28;49891;-87
2022/09/23 09:02:09;;;;;;;;;28.50;27.50;;;;;17.25;52.09;101372.44;4985294;28;49722;-87
2022/09/23 09:04:34;;;;;;;;;33.00;26.75;;;;;18.30;52.01;101516.97;4972403;28;49955;-86
2022/09/23 09:07:05;;;;;;;;;28.00;28.00;;;;;18.36;50.80;101513.47;4990638;28;49699;-80
2022/09/23 09:09:49;;;;;;;;;34.00;26.75;;;;;18.40;50.86;101504.59;4990283;28;50870;-86
2022/09/23 09:12:27;;;;;;;;;32.75;28.00;;;;;17.94;50.26;101426.59;4990717;28;49743;-80
2022/09/23 09:14:58;;;;;;;;;24.50;22.25;;;;;18.06;50.18;101431.94;4990947;28;49844;-83
2022/09/23 09:17:49;;;;;;;;;26.75;23.75;;;;;17.67;49.94;101351.31;4990985;28;49619;-83
2022/09/23 09:20:17;;;;;;;;;26.25;23.25;;;;;18.62;50.24;101500.16;4990682;28;49786;-88
2022/09/23 09:22:59;;;;;;;;;28.50;24.50;;;;;18.69;50.18;101504.63;4990329;28;49696;-85
2022/09/23 09:25:44;;;;;;;;;21.50;19.25;;;;;18.75;49.57;101499.31;4990630;28;49877;-78
2022/09/23 09:28:15;;;;;;;;;28.00;23.75;;;;;18.54;49.57;101446.13;4990146;28;49729;-83
2022/09/23 09:30:43;;;;;;;;;25.50;21.50;;;;;18.91;48.53;101496.59;4990059;28;49760;-85
2022/09/23 09:33:17;;;;;;;;;17.75;16.75;;;;;19.01;48.95;101491.28;4990456;28;49829;-83
2022/09/23 09:36:06;;;;;;;;;20.75;18.75;;;;;19.11;48.58;101494.81;4988078;28;50061;-84
2022/09/23 09:38:31;;;;;;;;;21.00;19.25;;;;;18.46;47.88;101387.63;4990323;28;49785;-83
2022/09/23 09:41:08;;;;;;;;;27.75;21.75;;;;;18.60;47.82;101398.22;4988428;28;58856;-83
2022/09/23 09:43:34;;;;;;;;;19.75;17.25;;;;;19.33;48.17;101487.63;4990123;28;50029;-80
2022/09/23 09:46:32;;;;;;;;;25.00;20.50;;;;;19.34;46.99;101487.63;4989898;28;49662;-83
2022/09/23 09:49:06;;;;;;;;;18.75;16.25;;;;;18.58;47.43;101352.16;4990134;28;49906;-84
2022/09/23 09:51:31;;;;;;;;;15.75;14.00;;;;;18.84;45.97;101416.81;4989779;28;51029;-86
2022/09/23 09:54:21;;;;;;;;;19.75;16.25;;;;;18.76;46.62;101372.53;4989851;28;49590;-87
2022/09/23 09:56:48;;;;;;;;;14.00;12.25;;;;;18.51;46.37;101331.78;4984134;28;49792;-86
2022/09/23 09:59:34;;;;;;;;;15.75;15.00;;;;;18.53;46.90;101324.69;4989825;28;49706;-85
2022/09/23 10:02:15;;;;;;;;;14.25;13.25;;;;;19.28;45.96;101447.72;4990401;28;49826;-89
2022/09/23 10:04:44;;;;;;;;;13.25;11.50;;;;;19.54;45.47;101492.88;4974006;28;49871;-82
2022/09/23 10:07:14;;;;;;;;;13.00;11.00;;;;;19.58;44.77;101491.09;4990106;28;49991;-86
2022/09/23 10:09:47;;;;;;;;;11.00;11.00;;;;;18.75;44.24;101345.03;4991148;28;49646;-81
2022/09/23 10:12:17;;;;;;;;;10.25;9.75;;;;;19.16;44.55;101418.47;4975513;28;52341;-78
2022/09/23 10:14:43;;;;;;;;;12.00;9.50;;;;;19.68;43.89;101480.38;4996403;28;49937;-89
2022/09/23 10:17:26;;;;;;;;;8.75;6.00;;;;;19.50;44.76;101434.31;4997364;28;49670;-92
2022/09/23 10:20:08;;;;;;;;;8.50;8.00;;;;;19.07;43.84;101359.97;4997525;28;49761;-91
2022/09/23 10:22:41;;;;;;;;;9.00;8.00;;;;;19.94;44.10;101482.91;4996811;28;51006;-89
2022/09/23 10:25:19;;;;;;;;;8.50;8.50;;;;;19.68;43.68;101432.44;4999083;28;49789;-88
2022/09/23 10:27:45;;;;;;;;;10.75;7.50;;;;;19.37;42.89;101353.59;4993602;28;49693;-78
2022/09/23 10:30:27;;;;;;;;;13.75;8.75;;;;;20.02;42.50;101461.56;4993028;28;49734;-79
2022/09/23 10:32:56;;;;;;;;;11.75;11.75;;;;;20.03;42.01;101428.66;4992663;28;49825;-78
2022/09/23 10:35:24;;;;;;;;;11.00;11.00;;;;;20.33;42.09;101475.53;4993354;28;49861;-81
2022/09/23 10:37:58;;;;;;;;;11.75;11.75;;;;;19.65;42.05;101347.25;4981053;28;49763;-87
2022/09/23 10:47:18;;;;;;;;;11.25;9.50;;;;;20.96;40.83;101465.19;4931582;28;49954;-85
2022/09/23 10:49:52;;;;;;;;;9.25;8.00;;;;;21.08;40.58;101456.16;4931677;28;49953;-88
2022/09/23 10:52:23;;;;;;;;;10.25;9.25;;;;;21.13;39.55;101448.97;4999295;28;49603;-83
2022/09/23 10:55:17;;;;;;;;;6.75;6.50;;;;;21.20;40.11;101449.78;5002679;28;50400;-84
2022/09/23 10:57:57;;;;;;;;;10.00;8.75;;;;;21.29;40.05;101449.72;4981956;28;50005;-79
2022/09/23 11:01:00;;;;;;;;;8.75;8.75;;;;;21.42;39.86;101454.91;4992179;28;50344;-79
2022/09/23 11:03:44;;;;;;;;;10.75;8.50;;;;;21.56;39.48;101444.00;4993015;28;49587;-73
2022/09/23 11:06:31;;;;;;;;;8.50;7.25;;;;;21.55;38.71;101436.03;4975142;28;51476;-80
2022/09/23 11:09:39;;;;;;;;;9.25;8.00;;;;;20.80;38.46;101301.69;4992143;28;49874;-75
2022/09/23 11:12:07;;;;;;;;;9.00;8.25;;;;;21.54;37.92;101434.25;4950018;28;49797;-73
2022/09/23 11:15:00;;;;;;;;;9.50;9.50;;;;;21.41;37.26;101428.19;4984785;28;49956;-77
2022/09/23 11:17:34;;;;;;;;;10.00;8.50;;;;;21.43;38.19;101429.06;4986280;28;49924;-73
2022/09/23 11:20:00;;;;;;;;;6.50;6.50;;;;;21.54;39.05;101423.56;4992645;28;49839;-79
2022/09/23 11:22:40;;;;;;;;;12.00;7.25;;;;;21.58;37.57;101419.94;4991269;28;50095;-79
2022/09/23 11:25:33;;;;;;;;;9.00;8.75;;;;;21.40;38.09;101424.63;4990439;28;49835;-75
2022/09/23 11:28:25;;;;;;;;;7.75;7.00;;;;;21.57;37.24;101413.72;4991762;28;49966;-79
2022/09/23 11:31:05;;;;;;;;;16.50;9.75;;;;;21.43;38.01;101394.34;4977099;28;50078;-77
2022/09/23 11:33:53;;;;;;;;;11.50;9.50;;;;;21.68;37.92;101417.09;4995946;28;49752;-83
2022/09/23 11:36:31;;;;;;;;;8.50;6.75;;;;;21.13;37.27;101291.44;4995873;28;49421;-82
2022/09/23 11:39:04;;;;;;;;;11.50;7.50;;;;;21.09;36.44;101281.72;4998251;28;51101;-72
2022/09/23 11:41:35;;;;;;;;;8.25;8.25;;;;;21.33;36.19;101312.59;4985664;28;49839;-78
2022/09/23 11:44:25;;;;;;;;;6.50;6.25;;;;;22.04;36.75;101400.53;4988467;28;50022;-78
2022/09/23 11:47:15;;;;;;;;;15.00;12.25;;;;;22.19;37.55;101401.19;4979738;28;49238;-74
2022/09/23 11:50:11;;;;;;;;;9.75;8.75;;;;;21.72;37.64;101311.09;4991253;28;50543;-78
2022/09/23 11:52:47;;;;;;;;;7.00;7.00;;;;;22.14;36.69;101338.88;4991325;28;49697;-80
2022/09/23 11:55:26;;;;;;;;;9.75;8.50;;;;;22.61;35.81;101406.69;4991445;28;49710;-75
2022/09/23 11:58:07;;;;;;;;;8.00;6.50;;;;;22.22;35.69;101344.09;4991483;28;49910;-75
2022/09/23 12:00:38;;;;;;;;;9.50;7.75;;;;;22.16;35.51;101328.16;4990133;28;49883;-79
2022/09/23 12:03:20;;;;;;;;;10.75;7.25;;;;;22.64;35.18;101390.56;4991457;28;50036;-80
2022/09/23 12:06:08;;;;;;;;;8.00;6.25;;;;;22.18;35.72;101313.84;4991088;28;50159;-78
2022/09/23 12:08:38;;;;;;;;;6.00;6.00;;;;;22.71;35.03;101386.00;4987779;28;49738;-77
2022/09/23 12:11:09;;;;;;;;;7.75;7.75;;;;;22.77;34.86;101386.72;4991181;28;49919;-74
2022/09/23 12:14:13;;;;;;;;;7.75;6.00;;;;;22.88;35.34;101388.38;4991232;28;49680;-80
2022/09/23 12:16:54;;;;;;;;;5.75;5.75;;;;;22.96;34.70;101394.44;4991303;28;49839;-76
2022/09/23 12:19:45;;;;;;;;;4.50;4.50;;;;;22.92;34.42;101395.44;4991458;28;49889;-74
2022/09/23 12:22:39;;;;;;;;;9.00;7.00;;;;;22.96;34.73;101400.66;4990804;28;50693;-75
2022/09/23 12:25:34;;;;;;;;;4.75;4.75;;;;;22.42;35.50;101295.59;4990981;28;49903;-77
2022/09/23 12:28:05;;;;;;;;;5.25;4.50;;;;;22.46;34.98;101294.59;4973276;28;49687;-77
2022/09/23 12:30:34;;;;;;;;;6.75;6.75;;;;;22.11;34.47;101240.03;4991140;28;49673;-77
2022/09/23 12:33:23;;;;;;;;;7.50;6.00;;;;;23.16;34.05;101410.97;4990114;28;49725;-81
2022/09/23 12:35:52;;;;;;;;;8.00;6.00;;;;;23.13;34.36;101390.50;4989908;28;50018;-78
2022/09/23 12:38:25;;;;;;;;;6.50;6.00;;;;;23.16;34.42;101389.53;4990133;28;50094;-77
2022/09/23 12:40:54;;;;;;;;;5.75;5.75;;;;;22.18;34.56;101220.25;4988302;28;49959;-79
2022/09/23 12:43:33;;;;;;;;;6.00;6.00;;;;;22.56;34.56;101283.69;4990713;28;50421;-78
2022/09/23 12:46:22;;;;;;;;;8.25;6.75;;;;;23.24;34.86;101374.19;4972805;28;49992;-81
2022/09/23 12:48:56;;;;;;;;;7.50;7.50;;;;;23.32;34.90;101358.84;4990730;28;49742;-78
2022/09/23 12:51:33;;;;;;;;;7.00;7.00;;;;;23.00;35.43;101289.06;4990365;28;49804;-80
2022/09/23 12:54:02;;;;;;;;;5.00;5.00;;;;;23.51;34.76;101353.94;4988476;28;50007;-77
2022/09/23 12:56:57;;;;;;;;;6.75;6.00;;;;;23.53;34.51;101353.91;4988200;28;50054;-76
2022/09/23 12:59:28;;;;;;;;;7.00;6.50;;;;;23.29;34.42;101332.13;4994150;28;49754;-80
2022/09/23 13:01:54;;;;;;;;;6.00;6.00;;;;;23.11;34.75;101306.63;4989065;28;50582;-76
2022/09/23 13:07:17;;;;;;;;;8.75;7.75;;;;;22.91;33.77;101238.38;4988678;28;49832;-77
2022/09/23 13:09:49;;;;;;;;;6.50;6.00;;;;;23.37;34.05;101323.94;4990523;28;49799;-76
2022/09/23 13:12:33;;;;;;;;;6.00;4.75;;;;;23.25;34.25;101268.81;4990867;28;49800;-75
2022/09/23 13:15:02;;;;;;;;;5.50;5.50;;;;;23.88;33.67;101337.00;4983235;28;51404;-77
2022/09/23 13:17:38;;;;;;;;;9.25;8.25;;;;;23.95;33.73;101341.31;4990447;28;49821;-75
2022/09/23 13:20:24;;;;;;;;;6.00;6.00;;;;;23.88;33.39;101337.88;4990334;28;49774;-78
2022/09/23 13:22:52;;;;;;;;;6.50;6.50;;;;;23.74;33.44;101336.47;4982724;28;51250;-77
2022/09/23 13:25:24;;;;;;;;;7.75;6.00;;;;;22.55;33.65;101163.31;4989861;28;49841;-78
2022/09/23 13:27:56;;;;;;;;;4.00;4.00;;;;;23.68;34.29;101343.75;4985450;28;49730;-75
2022/09/23 13:30:25;;;;;;;;;11.00;9.50;;;;;22.98;33.87;101230.19;4988151;28;49810;-75
2022/09/23 13:33:12;;;;;;;;;5.50;5.00;;;;;22.33;34.58;101127.25;4990317;28;49919;-75
2022/09/23 13:35:53;;;;;;;;;7.25;7.00;;;;;23.37;33.51;101308.72;4989782;28;49999;-76
2022/09/23 13:38:24;;;;;;;;;8.50;7.50;;;;;23.64;34.29;101334.03;4989880;28;49767;-77
2022/09/23 13:41:21;;;;;;;;;8.00;8.00;;;;;22.60;34.45;101134.69;4989915;28;49846;-77
2022/09/23 13:43:57;;;;;;;;;4.25;4.25;;;;;23.06;34.69;101209.44;4984745;28;49916;-76
2022/09/23 13:46:29;;;;;;;;;7.25;6.75;;;;;22.75;35.03;101154.84;4992989;28;50521;-77
2022/09/23 13:48:55;;;;;;;;;8.50;8.00;;;;;22.70;35.21;101127.31;4993091;28;49776;-79
2022/09/23 13:51:25;;;;;;;;;7.50;7.25;;;;;23.32;33.96;101272.22;4993335;28;49654;-74
2022/09/23 13:53:56;;;;;;;;;6.00;6.00;;;;;23.42;34.05;101282.69;4992984;28;49857;-77
2022/09/23 13:56:24;;;;;;;;;6.25;5.75;;;;;23.50;34.08;101285.19;4993270;28;49659;-78
2022/09/23 13:58:49;;;;;;;;;8.50;7.25;;;;;23.64;34.27;101314.34;4993379;28;49889;-76
2022/09/23 14:01:29;;;;;;;;;8.00;8.00;;;;;23.05;34.12;101218.41;4993247;28;49972;-78
2022/09/23 14:03:55;;;;;;;;;9.25;9.00;;;;;23.44;34.84;101306.75;4993289;28;49789;-76
2022/09/23 14:06:20;;;;;;;;;10.25;7.25;;;;;22.41;34.65;101102.09;4991887;28;50499;-76
2022/09/23 14:08:58;;;;;;;;;10.50;9.00;;;;;23.02;35.28;101225.63;4975357;28;50146;-75
2022/09/23 14:11:33;;;;;;;;;6.50;6.50;;;;;23.07;35.76;101202.31;4989054;28;49781;-79
2022/09/23 14:14:06;;;;;;;;;8.25;8.25;;;;;22.63;34.63;101129.25;4987529;28;49745;-75
2022/09/23 14:16:36;;;;;;;;;8.50;7.00;;;;;23.75;34.85;101323.03;4988528;28;51238;-77
2022/09/23 14:19:02;;;;;;;;;10.50;9.25;;;;;22.73;34.67;101128.09;4986191;28;49678;-81
2022/09/23 14:21:37;;;;;;;;;9.25;9.25;;;;;23.86;34.57;101294.16;4995740;28;49882;-75
2022/09/23 14:24:20;;;;;;;;;6.50;6.50;;;;;23.22;34.67;101183.19;4993507;28;50192;-76
2022/09/23 14:26:52;;;;;;;;;7.75;5.75;;;;;23.32;34.46;101203.47;5008598;28;49707;-78
2022/09/23 14:29:23;;;;;;;;;7.25;6.00;;;;;22.73;34.18;101130.78;4988877;28;49847;-75
2022/09/23 14:31:56;;;;;;;;;7.50;7.50;;;;;23.63;35.01;101281.31;5002052;28;49616;-75
2022/09/23 14:34:44;;;;;;;;;9.25;7.75;;;;;23.48;34.88;101279.00;4975137;28;50255;-78
2022/09/23 14:40:29;;;;;;;;;9.75;8.25;;;;;23.33;35.87;101274.88;4992438;28;49752;-76
2022/09/23 14:43:21;;;;;;;;;7.75;7.50;;;;;22.31;35.57;101126.41;4992471;28;50173;-75
2022/09/23 14:45:51;;;;;;;;;9.00;9.00;;;;;22.45;35.35;101175.13;4992435;28;49988;-75
2022/09/23 14:48:26;;;;;;;;;11.00;9.75;;;;;23.02;35.07;101271.16;4974348;28;52540;-78
2022/09/23 14:50:58;;;;;;;;;12.75;12.75;;;;;22.37;34.95;101199.38;4991976;28;49903;-75
2022/09/23 14:53:44;;;;;;;;;9.50;9.25;;;;;22.72;35.60;101265.53;4992787;28;49928;-75
2022/09/23 14:56:15;;;;;;;;;10.75;10.75;;;;;22.06;35.50;101167.00;4992116;28;49698;-77
2022/09/23 14:58:55;;;;;;;;;13.50;13.50;;;;;21.67;35.63;101102.72;4992341;28;50787;-75
2022/09/23 15:01:29;;;;;;;;;10.75;10.75;;;;;22.65;35.83;101257.66;4992233;28;49994;-75
2022/09/23 15:03:56;;;;;;;;;9.50;8.00;;;;;21.40;35.74;101055.16;4992317;28;49748;-75
2022/09/23 15:06:23;;;;;;;;;11.75;10.75;;;;;21.37;35.71;101065.91;4992864;28;50032;-75
2022/09/23 15:08:53;;;;;;;;;11.75;11.25;;;;;22.31;36.66;101214.69;4992439;28;51047;-75
2022/09/23 15:11:21;;;;;;;;;12.25;11.75;;;;;21.81;36.32;101163.94;4993102;28;49796;-76
2022/09/23 15:13:49;;;;;;;;;14.00;10.25;;;;;22.30;36.26;101231.66;4994204;28;49665;-75
2022/09/23 15:16:22;;;;;;;;;10.75;10.75;;;;;21.57;36.33;101114.50;4992913;28;49726;-74
2022/09/23 15:18:53;;;;;;;;;12.00;11.25;;;;;22.40;36.59;101247.47;4992029;28;49743;-76
2022/09/23 15:21:20;;;;;;;;;12.25;8.75;;;;;21.40;36.32;101088.09;4991900;28;49862;-75
2022/09/23 15:23:51;;;;;;;;;12.50;12.25;;;;;22.04;36.42;101194.69;4992766;28;49931;-76
2022/09/23 15:26:20;;;;;;;;;10.75;10.75;;;;;21.91;36.73;101184.22;4992748;28;49610;-74
2022/09/23 15:28:46;;;;;;;;;12.25;12.25;;;;;22.34;36.55;101244.91;4992062;28;50756;-75
2022/09/23 15:31:14;;;;;;;;;13.25;12.25;;;;;21.35;36.48;101059.75;4992997;28;49751;-75
2022/09/23 15:33:42;;;;;;;;;17.50;14.25;;;;;21.92;36.85;101151.25;4975054;28;49976;-76
2022/09/23 15:36:16;;;;;;;;;14.75;12.25;;;;;21.67;36.47;101099.19;4993104;28;49651;-75
2022/09/23 15:38:42;;;;;;;;;16.00;14.75;;;;;22.43;36.26;101230.47;4986703;28;49965;-77
2022/09/23 15:41:07;;;;;;;;;14.25;13.50;;;;;22.43;36.64;101233.16;4993409;28;49655;-75
2022/09/23 15:43:33;;;;;;;;;15.50;14.25;;;;;21.36;36.49;101067.72;4993535;28;49906;-76
2022/09/23 15:46:05;;;;;;;;;15.00;13.00;;;;;22.39;36.62;101223.41;4992734;28;49985;-75
2022/09/23 15:48:38;;;;;;;;;13.50;12.25;;;;;21.77;36.93;101134.63;4993762;28;50824;-77
2022/09/23 15:51:05;;;;;;;;;14.75;12.50;;;;;21.18;37.10;101008.41;4973185;28;50100;-74
2022/09/23 15:53:31;;;;;;;;;14.50;13.00;;;;;21.68;36.83;101085.78;4973944;28;49655;-74
2022/09/23 15:55:57;;;;;;;;;11.75;11.75;;;;;21.57;36.72;101065.53;4992241;28;49734;-76
2022/09/23 15:58:26;;;;;;;;;14.75;13.50;;;;;21.43;36.02;101049.78;4991784;28;49883;-78
2022/09/23 16:00:54;;;;;;;;;15.75;14.75;;;;;21.81;36.91;101114.94;4990824;28;50113;-79
2022/09/23 16:03:24;;;;;;;;;15.25;13.75;;;;;21.28;36.93;101024.25;4992795;28;49788;-76
2022/09/23 16:05:50;;;;;;;;;15.50;14.25;;;;;21.69;36.84;101114.25;4992700;28;49926;-77
2022/09/23 16:08:19;;;;;;;;;15.75;14.50;;;;;22.21;36.99;101193.47;5003273;28;49763;-76
2022/09/23 16:10:44;;;;;;;;;12.75;12.50;;;;;21.97;37.12;101188.56;4991377;28;49375;-76
2022/09/23 16:13:11;;;;;;;;;16.00;15.25;;;;;21.89;37.56;101190.50;5009020;28;50855;-75
2022/09/23 16:15:38;;;;;;;;;14.25;14.00;;;;;21.50;38.64;101112.84;5008766;28;49369;-76
2022/09/23 16:18:05;;;;;;;;;17.75;15.75;;;;;21.97;38.04;101196.56;5008631;28;49545;-76
2022/09/23 16:20:34;;;;;;;;;17.25;14.50;;;;;21.34;37.62;101122.06;5008775;28;49408;-75
2022/09/23 16:23:12;;;;;;;;;14.75;13.50;;;;;21.55;38.02;101167.09;4997651;28;49649;-74
2022/09/23 16:25:38;;;;;;;;;15.25;14.50;;;;;20.86;38.18;101061.47;4993037;28;49598;-77
2022/09/23 16:28:03;;;;;;;;;15.75;15.00;;;;;21.02;38.42;101079.84;4999947;28;49945;-75
2022/09/23 16:30:31;;;;;;;;;14.50;12.00;;;;;20.76;38.65;101046.50;4994707;28;49787;-76
2022/09/23 16:32:57;;;;;;;;;10.00;10.00;;;;;21.35;38.62;101187.91;4994336;28;50012;-75
2022/09/23 16:35:25;;;;;;;;;13.00;12.00;;;;;20.26;38.53;101004.59;5001990;28;49955;-78
2022/09/23 16:37:51;;;;;;;;;14.75;14.75;;;;;21.40;38.74;101197.59;5000078;28;51324;-78
2022/09/23 16:40:19;;;;;;;;;17.75;15.50;;;;;20.95;39.06;101144.94;4999958;28;49880;-76
2022/09/23 16:42:46;;;;;;;;;14.25;11.75;;;;;21.09;39.31;101154.47;5002307;28;49858;-76
2022/09/23 16:45:16;;;;;;;;;12.75;12.75;;;;;21.32;39.45;101195.97;4998808;28;49789;-78
2022/09/23 16:47:45;;;;;;;;;17.50;14.25;;;;;21.30;39.82;101211.13;5005179;28;50002;-76
2022/09/23 16:50:15;;;;;;;;;16.50;15.25;;;;;20.62;40.05;101076.97;4996038;28;49708;-77
2022/09/23 16:52:42;;;;;;;;;14.25;14.00;;;;;21.23;39.91;101180.97;5000510;28;49786;-75
2022/09/23 16:55:09;;;;;;;;;14.25;11.50;;;;;20.26;39.31;101041.91;4988577;28;49584;-75
2022/09/23 16:57:36;;;;;;;;;12.00;11.25;;;;;20.14;39.59;101015.44;4993504;28;49948;-76
2022/09/23 17:05:36;;;;;;;;;11.25;11.25;;;;;20.91;40.19;101176.13;4995133;28;49635;-76
2022/09/23 17:08:03;;;;;;;;;11.25;11.00;;;;;20.58;40.77;101141.03;5000036;28;50597;-77
2022/09/23 17:10:28;;;;;;;;;12.75;9.00;;;;;20.53;40.92;101169.53;4995167;28;49942;-76
2022/09/23 17:12:54;;;;;;;;;11.75;9.00;;;;;20.51;40.85;101157.16;4996418;28;49823;-75
2022/09/23 17:15:20;;;;;;;;;12.75;11.00;;;;;20.34;40.60;101149.31;4989978;28;49792;-75
2022/09/23 17:17:46;;;;;;;;;12.50;11.25;;;;;20.51;40.81;101192.69;4990855;28;50743;-76
2022/09/23 17:20:14;;;;;;;;;14.75;13.00;;;;;20.06;41.05;101154.13;4990915;28;49810;-74